Time;durP1;ratioP1;P1;durP2;ratioP2;P2;SDS_P1;SDS_P2;PMS_P1;PMS_P2;Temp;Humidity;BMP_temperature;BMP_pressure;BME280_temperature;BME280_humidity;BME280_pressure;Samples;Min_cycle;Max_cycle;Signal;HPM_P1;HPM_P2
2023/02/01 00:00:34;;;;;;;22.45;4.18;;;6.00;99.90;;;;;;6153587;23;20021;-81
2023/02/01 00:03:00;;;;;;;27.27;4.63;;;6.00;99.90;;;;;;6154670;23;20018;-80
2023/02/01 00:05:26;;;;;;;25.05;4.43;;;6.00;99.90;;;;;;6154028;23;20052;-80
2023/02/01 00:07:51;;;;;;;26.52;3.72;;;6.00;99.90;;;;;;6130700;23;20084;-80
2023/02/01 00:10:17;;;;;;;31.88;5.63;;;6.00;99.90;;;;;;6153789;23;20088;-80
2023/02/01 00:12:43;;;;;;;27.95;5.57;;;6.00;99.90;;;;;;6154927;23;20486;-79
2023/02/01 00:15:09;;;;;;;29.25;6.15;;;6.00;99.90;;;;;;6152764;23;20641;-80
2023/02/01 00:17:35;;;;;;;25.33;4.00;;;6.10;99.90;;;;;;6128780;23;20137;-80
2023/02/01 00:20:00;;;;;;;29.23;4.25;;;6.10;99.90;;;;;;6154980;23;20021;-80
2023/02/01 00:22:26;;;;;;;26.65;4.05;;;6.10;99.90;;;;;;6130905;23;20010;-80
2023/02/01 00:24:52;;;;;;;24.95;4.75;;;6.00;99.90;;;;;;6128762;23;20013;-79
2023/02/01 00:27:20;;;;;;;23.00;4.07;;;6.00;99.90;;;;;;6153967;23;20398;-79
2023/02/01 00:29:45;;;;;;;22.98;4.70;;;6.00;99.90;;;;;;6130448;23;20024;-79
2023/02/01 00:32:11;;;;;;;27.50;5.72;;;6.00;99.90;;;;;;6154871;23;20092;-80
2023/02/01 00:34:37;;;;;;;22.95;4.65;;;6.00;99.90;;;;;;6154414;23;20017;-80
2023/02/01 00:37:02;;;;;;;25.98;3.83;;;6.00;99.90;;;;;;6129300;23;20026;-80
2023/02/01 00:39:28;;;;;;;29.85;5.78;;;6.00;99.90;;;;;;6128938;23;20017;-80
2023/02/01 00:41:53;;;;;;;22.35;3.90;;;6.00;99.90;;;;;;6153825;23;20009;-80
2023/02/01 00:44:19;;;;;;;19.67;4.07;;;6.00;99.90;;;;;;6153340;23;20017;-79
2023/02/01 00:46:45;;;;;;;19.60;4.05;;;6.10;99.90;;;;;;6153669;23;20020;-80
2023/02/01 00:49:10;;;;;;;29.77;4.15;;;6.00;99.90;;;;;;6154205;23;20017;-80
2023/02/01 00:51:36;;;;;;;26.15;4.38;;;6.00;99.90;;;;;;6153453;23;20048;-80
2023/02/01 00:54:03;;;;;;;24.58;4.63;;;6.10;99.90;;;;;;6129161;23;20745;-80
2023/02/01 00:56:29;;;;;;;21.45;4.13;;;6.10;99.90;;;;;;6127665;23;20500;-80
2023/02/01 00:58:56;;;;;;;25.10;4.53;;;6.10;99.90;;;;;;6154373;23;20525;-80
2023/02/01 01:01:26;;;;;;;27.13;5.30;;;6.10;99.90;;;;;;6153862;23;20010;-80
2023/02/01 01:03:55;;;;;;;22.52;5.15;;;6.10;99.90;;;;;;6129031;23;20100;-80
2023/02/01 01:06:23;;;;;;;23.35;3.72;;;6.10;99.90;;;;;;6128528;23;20013;-80
2023/02/01 01:08:52;;;;;;;26.83;4.72;;;6.10;99.90;;;;;;6130156;23;20056;-80
2023/02/01 01:11:22;;;;;;;20.25;4.15;;;6.00;99.90;;;;;;6128377;23;20343;-80
2023/02/01 01:13:49;;;;;;;21.52;4.45;;;6.00;99.90;;;;;;6154802;23;20096;-80
2023/02/01 01:16:15;;;;;;;28.25;5.30;;;6.10;99.90;;;;;;6128645;23;20014;-81
2023/02/01 01:18:41;;;;;;;23.98;4.95;;;6.20;99.90;;;;;;6152678;23;20044;-80
2023/02/01 01:21:08;;;;;;;28.63;4.57;;;6.10;99.90;;;;;;6129085;23;20069;-80
2023/02/01 01:23:34;;;;;;;24.00;3.88;;;6.20;99.90;;;;;;6154659;23;20088;-80
2023/02/01 01:26:00;;;;;;;26.77;3.90;;;6.10;99.90;;;;;;6128309;23;20019;-81
2023/02/01 01:28:25;;;;;;;27.88;4.93;;;6.10;99.90;;;;;;6154150;23;20017;-79
2023/02/01 01:30:51;;;;;;;23.38;5.15;;;6.20;99.90;;;;;;6153682;23;20023;-80
2023/02/01 01:33:16;;;;;;;19.95;3.65;;;6.10;99.90;;;;;;6153108;23;20092;-80
2023/02/01 01:35:42;;;;;;;24.90;4.00;;;6.20;99.90;;;;;;6152933;23;20021;-80
2023/02/01 01:38:11;;;;;;;28.85;5.15;;;6.20;99.90;;;;;;6129513;23;20446;-80
2023/02/01 01:40:37;;;;;;;28.73;4.75;;;6.20;99.90;;;;;;6128786;23;20032;-80
2023/02/01 01:43:02;;;;;;;21.77;3.90;;;6.20;99.90;;;;;;6153235;23;20022;-80
2023/02/01 01:45:33;;;;;;;24.10;4.47;;;6.20;99.90;;;;;;6152203;23;20016;-79
2023/02/01 01:48:20;;;;;;;27.60;4.20;;;6.20;99.90;;;;;;6129287;23;20017;-80
2023/02/01 01:50:56;;;;;;;29.20;5.10;;;6.20;99.90;;;;;;6128220;23;20101;-80
2023/02/01 01:53:31;;;;;;;19.05;4.55;;;6.20;99.90;;;;;;6128240;23;20017;-79
2023/02/01 01:55:57;;;;;;;20.42;4.75;;;6.30;99.90;;;;;;6152857;23;20017;-80
2023/02/01 01:58:26;;;;;;;25.10;4.18;;;6.30;99.90;;;;;;6129448;23;20052;-80
2023/02/01 02:00:52;;;;;;;21.20;4.63;;;6.20;99.90;;;;;;6152484;23;20487;-79
2023/02/01 02:03:25;;;;;;;29.33;5.75;;;6.30;99.90;;;;;;6126740;23;20014;-80
2023/02/01 02:05:53;;;;;;;22.75;4.05;;;6.30;99.90;;;;;;6127133;23;20014;-80
2023/02/01 02:08:20;;;;;;;29.42;5.95;;;6.30;99.90;;;;;;6154269;23;20041;-80
2023/02/01 02:11:00;;;;;;;30.58;4.80;;;6.20;99.90;;;;;;6153590;23;20013;-80
2023/02/01 02:13:32;;;;;;;22.33;5.22;;;6.30;99.90;;;;;;6129371;23;20024;-80
2023/02/01 02:16:16;;;;;;;20.00;3.42;;;6.20;99.90;;;;;;6152861;23;20020;-80
2023/02/01 02:19:14;;;;;;;21.08;4.22;;;6.20;99.90;;;;;;6153621;23;20049;-81
2023/02/01 02:22:05;;;;;;;24.45;4.40;;;6.20;99.90;;;;;;6153519;23;20017;-80
2023/02/01 02:25:04;;;;;;;21.50;4.53;;;6.20;99.90;;;;;;6128436;23;20076;-80
2023/02/01 02:27:44;;;;;;;21.48;3.72;;;6.10;99.90;;;;;;6129674;23;20018;-80
2023/02/01 02:30:40;;;;;;;20.13;4.05;;;6.10;99.90;;;;;;6153563;23;20024;-80
2023/02/01 02:33:37;;;;;;;28.63;5.05;;;6.10;99.90;;;;;;6128822;23;20025;-79
2023/02/01 02:36:15;;;;;;;23.70;5.25;;;6.10;99.90;;;;;;6128403;23;20029;-80
2023/02/01 02:38:52;;;;;;;23.23;4.28;;;6.00;99.90;;;;;;6129103;23;20017;-80
2023/02/01 02:47:24;;;;;;;23.10;4.55;;;6.00;99.90;;;;;;6154364;23;20029;-81
2023/02/01 02:55:36;;;;;;;19.95;4.70;;;6.00;99.90;;;;;;6153703;23;20088;-80
2023/02/01 03:06:24;;;;;;;30.15;5.40;;;5.90;99.90;;;;;;6154480;23;20017;-79
2023/02/01 03:08:56;;;;;;;23.42;5.57;;;5.90;99.90;;;;;;6155415;23;20009;-80
2023/02/01 03:12:54;;;;;;;24.27;4.65;;;5.80;99.90;;;;;;6154820;23;20022;-80
2023/02/01 03:14:11;;;;;;;31.08;5.90;;;5.90;99.90;;;;;;6154897;23;20032;-80
2023/02/01 03:16:54;;;;;;;22.08;4.10;;;5.90;99.90;;;;;;6153576;23;20024;-80
2023/02/01 03:19:33;;;;;;;21.50;4.80;;;5.90;99.90;;;;;;6129456;23;20036;-80
2023/02/01 03:22:06;;;;;;;28.75;5.15;;;5.90;99.90;;;;;;6154179;23;20021;-80
2023/02/01 03:24:38;;;;;;;24.08;4.38;;;5.90;99.90;;;;;;6130131;23;20014;-80
2023/02/01 03:27:16;;;;;;;26.98;4.68;;;5.90;99.90;;;;;;6155217;23;20020;-80
2023/02/01 03:29:49;;;;;;;25.25;4.70;;;6.00;99.90;;;;;;6154986;23;20047;-80
2023/02/01 03:32:14;;;;;;;26.10;4.53;;;5.90;99.90;;;;;;6153706;23;20070;-80
2023/02/01 03:34:40;;;;;;;38.88;5.97;;;6.00;99.90;;;;;;6128881;23;20021;-80
2023/02/01 03:37:10;;;;;;;28.35;4.82;;;6.00;99.90;;;;;;6154156;23;20013;-79
2023/02/01 03:39:44;;;;;;;25.50;4.72;;;5.90;99.90;;;;;;6129200;23;20013;-80
2023/02/01 03:42:21;;;;;;;25.83;5.43;;;5.90;99.90;;;;;;6155568;23;20088;-80
2023/02/01 03:45:02;;;;;;;28.30;4.70;;;6.00;99.90;;;;;;6129690;23;20068;-80
2023/02/01 03:47:33;;;;;;;28.15;4.28;;;6.00;99.90;;;;;;6153359;23;20258;-80
2023/02/01 03:50:09;;;;;;;26.48;4.90;;;6.00;99.90;;;;;;6129769;23;20025;-80
2023/02/01 03:52:59;;;;;;;26.50;4.68;;;6.00;99.90;;;;;;6129416;23;20040;-80
2023/02/01 03:55:27;;;;;;;25.00;6.28;;;6.00;99.90;;;;;;6126103;23;20021;-80
2023/02/01 03:58:10;;;;;;;24.52;3.78;;;6.10;99.90;;;;;;6129367;23;20064;-80
2023/02/01 04:00:36;;;;;;;22.88;4.88;;;6.10;99.90;;;;;;6153596;23;20014;-80
2023/02/01 04:03:04;;;;;;;25.13;4.57;;;6.10;99.90;;;;;;6153728;23;20020;-80
2023/02/01 04:05:30;;;;;;;24.05;4.05;;;6.10;99.90;;;;;;6152433;23;20020;-80
2023/02/01 04:07:56;;;;;;;29.30;4.70;;;6.00;99.90;;;;;;6129829;23;20017;-80
2023/02/01 04:10:21;;;;;;;27.63;5.07;;;6.00;99.90;;;;;;6129378;23;20068;-80
2023/02/01 04:12:47;;;;;;;25.73;4.57;;;6.00;99.90;;;;;;6154112;23;20410;-80
2023/02/01 04:15:12;;;;;;;26.02;4.88;;;6.00;99.90;;;;;;6153674;23;20043;-81
2023/02/01 04:17:38;;;;;;;25.60;5.25;;;5.90;99.90;;;;;;6153979;23;20068;-80
2023/02/01 04:20:04;;;;;;;32.30;6.38;;;6.00;99.90;;;;;;6129444;23;20041;-80
2023/02/01 04:22:30;;;;;;;24.85;4.05;;;5.90;99.90;;;;;;6129987;23;20017;-80
2023/02/01 04:24:56;;;;;;;25.38;6.13;;;5.90;99.90;;;;;;6127612;23;20017;-80
2023/02/01 04:27:21;;;;;;;25.58;4.15;;;5.90;99.90;;;;;;6130467;23;20025;-80
2023/02/01 04:29:49;;;;;;;31.80;5.00;;;5.90;99.90;;;;;;6129469;23;20028;-80
2023/02/01 04:32:15;;;;;;;32.25;5.13;;;5.90;99.90;;;;;;6129249;23;20027;-80
2023/02/01 04:34:41;;;;;;;26.77;5.43;;;5.80;99.90;;;;;;6129870;23;20020;-80
2023/02/01 04:37:07;;;;;;;28.30;4.63;;;5.90;99.90;;;;;;6152956;23;20045;-80
2023/02/01 04:39:33;;;;;;;27.80;4.38;;;5.90;99.90;;;;;;6153453;23;20029;-80
2023/02/01 04:41:58;;;;;;;22.83;4.22;;;5.90;99.90;;;;;;6129366;23;20013;-80
2023/02/01 04:44:24;;;;;;;22.52;4.85;;;5.90;99.90;;;;;;6128112;23;20009;-80
2023/02/01 04:46:50;;;;;;;20.70;3.63;;;5.90;99.90;;;;;;6129266;23;20025;-80
2023/02/01 04:49:15;;;;;;;25.88;4.80;;;5.90;99.90;;;;;;6129796;23;20044;-80
2023/02/01 04:51:41;;;;;;;25.23;6.07;;;5.90;99.90;;;;;;6128079;23;20024;-80
2023/02/01 04:54:08;;;;;;;27.85;4.60;;;6.00;99.90;;;;;;6129973;23;20394;-80
2023/02/01 04:56:37;;;;;;;26.35;5.22;;;6.00;99.90;;;;;;6150543;23;20014;-80
2023/02/01 04:59:02;;;;;;;29.17;5.45;;;6.00;99.90;;;;;;6128901;23;20018;-80
2023/02/01 05:01:28;;;;;;;22.05;4.68;;;6.00;99.90;;;;;;6151094;23;20324;-80
2023/02/01 05:03:54;;;;;;;22.63;4.65;;;6.00;99.90;;;;;;6126328;23;20016;-79
2023/02/01 05:06:20;;;;;;;27.42;4.85;;;6.00;99.90;;;;;;6127140;23;20736;-80
2023/02/01 05:08:45;;;;;;;23.25;4.85;;;6.00;99.90;;;;;;6129757;23;20514;-79
2023/02/01 05:13:47;;;;;;;28.67;4.05;;;6.00;99.90;;;;;;6128469;23;20096;-80
2023/02/01 05:13:57;;;;;;;25.45;5.28;;;6.00;99.90;;;;;;6152750;23;20025;-80
2023/02/01 05:16:23;;;;;;;25.90;4.15;;;6.00;99.90;;;;;;6125096;23;20029;-80
2023/02/01 05:18:48;;;;;;;15.52;3.53;;;6.00;99.90;;;;;;6129128;23;20060;-81
2023/02/01 05:21:14;;;;;;;25.30;3.70;;;5.90;99.90;;;;;;6127504;23;20061;-81
2023/02/01 05:26:24;;;;;;;25.10;4.25;;;6.00;99.90;;;;;;6151728;23;20028;-80
2023/02/01 05:28:50;;;;;;;21.45;4.57;;;6.00;99.90;;;;;;6127403;23;20009;-80
2023/02/01 05:31:16;;;;;;;26.65;4.35;;;6.00;99.90;;;;;;6127375;23;20052;-80
2023/02/01 05:33:41;;;;;;;25.00;4.43;;;6.00;99.90;;;;;;6130073;23;20409;-84
2023/02/01 05:36:07;;;;;;;22.13;4.32;;;6.10;99.90;;;;;;6128173;23;20014;-79
2023/02/01 05:38:33;;;;;;;29.85;4.50;;;6.10;99.90;;;;;;6128433;23;20017;-83
2023/02/01 05:40:58;;;;;;;22.17;4.60;;;6.00;99.90;;;;;;6126751;23;20028;-79
2023/02/01 05:43:24;;;;;;;28.17;4.53;;;6.10;99.90;;;;;;6130241;23;20027;-82
2023/02/01 05:45:51;;;;;;;22.13;4.57;;;6.20;99.90;;;;;;6151090;23;20351;-81
2023/02/01 05:48:17;;;;;;;23.45;4.30;;;6.10;99.90;;;;;;6127755;23;20020;-82
2023/02/01 05:50:43;;;;;;;23.75;4.25;;;6.20;99.90;;;;;;6127555;23;20036;-82
2023/02/01 05:53:08;;;;;;;23.08;4.45;;;6.20;99.90;;;;;;6147400;23;20083;-80
2023/02/01 05:55:34;;;;;;;22.80;3.50;;;6.20;99.90;;;;;;6146876;23;20097;-80
2023/02/01 05:57:59;;;;;;;18.83;3.70;;;6.20;99.90;;;;;;6150870;23;20017;-80
2023/02/01 06:00:25;;;;;;;25.20;5.10;;;6.20;99.90;;;;;;6151303;23;20014;-80
2023/02/01 06:02:51;;;;;;;22.58;4.88;;;6.20;99.90;;;;;;6152100;23;20009;-80
2023/02/01 06:05:16;;;;;;;21.95;4.72;;;6.20;99.90;;;;;;6127502;23;20010;-82
2023/02/01 06:07:42;;;;;;;27.55;4.05;;;6.20;99.90;;;;;;6128066;23;20025;-82
2023/02/01 06:10:08;;;;;;;16.40;3.22;;;6.30;99.90;;;;;;6129270;23;20023;-83
2023/02/01 06:12:34;;;;;;;23.55;3.45;;;6.30;99.90;;;;;;6127776;23;20017;-82
2023/02/01 06:15:00;;;;;;;19.38;4.40;;;6.20;99.90;;;;;;6126292;23;20028;-81
2023/02/01 06:17:25;;;;;;;27.85;5.10;;;6.20;99.90;;;;;;6151990;23;20013;-81
2023/02/01 06:19:51;;;;;;;26.08;4.80;;;6.20;99.90;;;;;;6127773;23;20064;-83
2023/02/01 06:22:16;;;;;;;23.98;4.45;;;6.20;99.90;;;;;;6153306;23;20009;-81
2023/02/01 06:24:43;;;;;;;23.15;4.78;;;6.20;99.90;;;;;;6152377;23;20064;-81
2023/02/01 06:27:09;;;;;;;19.58;3.65;;;6.30;99.90;;;;;;6127659;23;20045;-80
2023/02/01 06:29:35;;;;;;;20.98;3.15;;;6.30;99.90;;;;;;6153101;23;20316;-80
2023/02/01 06:32:00;;;;;;;19.92;4.43;;;6.20;99.90;;;;;;6153432;23;20044;-82
2023/02/01 06:34:26;;;;;;;24.10;4.00;;;6.30;99.90;;;;;;6128985;23;20049;-83
2023/02/01 06:36:52;;;;;;;23.27;4.05;;;6.30;99.90;;;;;;6126543;23;20500;-84
2023/02/01 06:39:19;;;;;;;24.98;3.80;;;6.20;99.90;;;;;;6152703;23;20010;-84
2023/02/01 06:41:48;;;;;;;21.92;4.85;;;6.20;99.90;;;;;;6128247;23;20068;-84
2023/02/01 06:44:14;;;;;;;23.95;4.00;;;6.30;99.90;;;;;;6152667;23;20443;-83
2023/02/01 06:46:40;;;;;;;21.98;4.72;;;6.30;99.90;;;;;;6127142;23;20058;-83
2023/02/01 06:49:06;;;;;;;16.48;3.58;;;6.30;99.90;;;;;;6153339;23;20014;-82
2023/02/01 06:51:32;;;;;;;28.02;4.50;;;6.30;99.90;;;;;;6152864;23;20005;-84
2023/02/01 06:53:57;;;;;;;24.38;5.22;;;6.30;99.90;;;;;;6127337;23;20013;-81
2023/02/01 06:56:23;;;;;;;22.90;4.03;;;6.30;99.90;;;;;;6149564;23;20013;-81
2023/02/01 06:58:49;;;;;;;26.02;4.18;;;6.30;99.90;;;;;;6152647;23;20096;-81
2023/02/01 07:01:16;;;;;;;19.40;4.30;;;6.30;99.90;;;;;;6151708;23;20055;-81
2023/02/01 07:03:42;;;;;;;22.52;3.85;;;6.30;99.90;;;;;;6152486;23;20409;-80
2023/02/01 07:06:09;;;;;;;32.20;5.25;;;6.30;99.90;;;;;;6124467;23;20044;-81
2023/02/01 07:08:36;;;;;;;20.05;3.50;;;6.30;99.90;;;;;;6151653;23;20013;-81
2023/02/01 07:11:07;;;;;;;22.23;4.90;;;6.30;99.90;;;;;;6152460;23;20040;-82
2023/02/01 07:13:34;;;;;;;22.92;4.35;;;6.30;99.90;;;;;;6127813;23;20032;-80
2023/02/01 07:16:04;;;;;;;19.67;3.95;;;6.30;99.90;;;;;;6147730;23;20040;-80
2023/02/01 07:18:31;;;;;;;18.75;3.42;;;6.30;99.90;;;;;;6124556;23;20417;-80
2023/02/01 07:20:57;;;;;;;24.83;4.85;;;6.30;99.90;;;;;;6120337;23;20056;-79
2023/02/01 07:23:23;;;;;;;18.00;3.58;;;6.40;99.90;;;;;;6149840;23;20017;-80
2023/02/01 07:25:48;;;;;;;19.05;4.63;;;6.40;99.90;;;;;;6148153;23;20005;-80
2023/02/01 07:28:14;;;;;;;26.50;4.47;;;6.40;99.90;;;;;;6128191;23;20462;-79
2023/02/01 07:30:40;;;;;;;17.48;3.50;;;6.40;99.90;;;;;;6152668;23;20024;-79
2023/02/01 07:33:07;;;;;;;24.98;4.25;;;6.40;99.90;;;;;;6152880;23;20022;-79
2023/02/01 07:35:32;;;;;;;21.02;3.88;;;6.40;99.90;;;;;;6124843;23;20417;-79
2023/02/01 07:37:58;;;;;;;22.63;4.57;;;6.40;99.90;;;;;;6124629;23;20017;-79
2023/02/01 07:40:28;;;;;;;30.13;4.50;;;6.40;99.90;;;;;;6126733;23;20016;-79
2023/02/01 07:42:57;;;;;;;22.48;3.55;;;6.40;99.90;;;;;;6151300;23;20018;-80
2023/02/01 07:45:23;;;;;;;23.65;4.07;;;6.40;99.90;;;;;;6151924;23;20017;-80
2023/02/01 07:47:51;;;;;;;18.13;3.45;;;6.40;99.90;;;;;;6108774;23;20017;-80
2023/02/01 07:50:16;;;;;;;16.67;2.92;;;6.50;99.90;;;;;;6148742;23;20022;-80
2023/02/01 07:52:42;;;;;;;25.70;4.90;;;6.40;99.90;;;;;;6149682;23;20024;-80
2023/02/01 07:55:08;;;;;;;23.88;4.05;;;6.40;99.90;;;;;;6146082;23;20017;-80
2023/02/01 07:57:34;;;;;;;22.83;4.05;;;6.40;99.90;;;;;;6124743;23;20010;-80
2023/02/01 08:02:43;;;;;;;22.38;4.22;;;6.40;99.90;;;;;;6149899;23;20500;-80
2023/02/01 08:05:09;;;;;;;18.77;3.78;;;6.30;99.90;;;;;;6149049;23;20017;-81
2023/02/01 08:07:34;;;;;;;28.88;5.15;;;6.30;99.90;;;;;;6149542;23;20017;-81
2023/02/01 08:10:00;;;;;;;21.75;4.28;;;6.30;99.90;;;;;;6149723;23;20458;-81
2023/02/01 08:12:26;;;;;;;23.77;4.93;;;6.30;99.90;;;;;;6125904;23;20421;-81
2023/02/01 08:14:53;;;;;;;20.38;3.80;;;6.30;99.90;;;;;;6149738;23;20013;-81
2023/02/01 08:17:19;;;;;;;22.05;3.10;;;6.30;99.90;;;;;;6126422;23;20598;-81
2023/02/01 08:19:45;;;;;;;20.38;5.05;;;6.30;99.90;;;;;;6149825;23;20017;-81
2023/02/01 08:22:11;;;;;;;22.60;5.35;;;6.40;99.90;;;;;;6123864;23;20087;-81
2023/02/01 08:24:39;;;;;;;21.08;3.80;;;6.40;99.90;;;;;;6148025;23;20014;-81
2023/02/01 08:27:05;;;;;;;18.65;3.95;;;6.40;99.90;;;;;;6148146;23;20088;-81
2023/02/01 08:29:30;;;;;;;23.58;3.47;;;6.40;99.90;;;;;;6148565;23;20805;-81
2023/02/01 08:31:56;;;;;;;21.02;3.63;;;6.50;99.90;;;;;;6149351;23;20009;-82
2023/02/01 08:34:22;;;;;;;21.33;3.70;;;6.40;99.90;;;;;;6123390;23;20044;-81
2023/02/01 08:37:29;;;;;;;22.13;3.72;;;6.50;99.90;;;;;;6155668;23;20033;-84
2023/02/01 08:39:55;;;;;;;23.75;4.35;;;6.60;99.90;;;;;;6105825;23;20052;-82
2023/02/01 08:45:07;;;;;;;16.38;4.00;;;6.60;99.90;;;;;;6145562;23;20020;-82
2023/02/01 08:47:33;;;;;;;29.08;4.60;;;6.60;99.90;;;;;;6147378;23;20068;-81
2023/02/01 08:49:59;;;;;;;16.05;3.65;;;6.60;99.90;;;;;;6121230;23;20630;-83
2023/02/01 08:52:24;;;;;;;24.48;4.03;;;6.60;99.90;;;;;;6146617;23;20053;-82
2023/02/01 08:54:50;;;;;;;16.88;2.80;;;6.60;99.90;;;;;;6122802;23;20099;-82
2023/02/01 08:57:15;;;;;;;22.83;3.20;;;6.70;99.90;;;;;;6121387;23;20021;-82
2023/02/01 08:59:43;;;;;;;22.98;4.38;;;6.70;99.90;;;;;;6147807;23;20014;-82
2023/02/01 09:02:12;;;;;;;27.60;4.75;;;6.70;99.90;;;;;;6120777;23;20017;-80
2023/02/01 09:04:37;;;;;;;20.63;3.15;;;6.70;99.90;;;;;;6146671;23;20010;-80
2023/02/01 09:07:03;;;;;;;25.67;3.92;;;6.70;99.90;;;;;;6120768;23;20124;-81
2023/02/01 09:09:28;;;;;;;27.05;4.80;;;6.70;99.90;;;;;;6121005;23;20024;-80
2023/02/01 09:11:54;;;;;;;22.15;4.60;;;6.80;99.90;;;;;;6148147;23;20473;-80
2023/02/01 09:14:19;;;;;;;17.17;3.35;;;6.80;99.90;;;;;;6143852;23;20021;-80
2023/02/01 09:16:45;;;;;;;26.10;4.10;;;6.90;99.90;;;;;;6115168;23;20018;-80
2023/02/01 09:19:11;;;;;;;17.60;3.88;;;6.80;99.90;;;;;;6144886;23;20062;-80
2023/02/01 09:21:36;;;;;;;18.58;4.85;;;6.70;99.90;;;;;;6144308;23;20088;-80
2023/02/01 09:24:03;;;;;;;21.88;3.55;;;6.70;99.90;;;;;;6119050;23;20013;-81
2023/02/01 09:26:29;;;;;;;18.58;3.55;;;6.70;99.90;;;;;;6142483;23;20005;-81
2023/02/01 09:28:55;;;;;;;16.55;3.70;;;6.70;99.90;;;;;;6120965;23;20032;-81
2023/02/01 09:31:21;;;;;;;16.30;3.22;;;6.70;99.90;;;;;;6115327;23;20017;-81
2023/02/01 09:33:46;;;;;;;21.58;3.95;;;6.70;99.90;;;;;;6118655;23;20033;-81
2023/02/01 09:36:12;;;;;;;20.13;4.22;;;6.70;99.90;;;;;;6116199;23;20161;-81
2023/02/01 09:38:37;;;;;;;23.73;4.13;;;6.70;99.90;;;;;;6119277;23;20100;-80
2023/02/01 09:41:20;;;;;;;19.70;3.15;;;6.70;99.90;;;;;;6146983;23;20414;-80
2023/02/01 09:43:54;;;;;;;23.27;4.22;;;6.70;99.90;;;;;;6123683;23;20018;-80
2023/02/01 09:46:32;;;;;;;18.10;3.00;;;6.50;99.90;;;;;;6116103;23;20043;-80
2023/02/01 09:49:03;;;;;;;20.17;3.90;;;6.70;99.90;;;;;;6145087;23;20407;-81
2023/02/01 09:51:44;;;;;;;20.20;3.90;;;6.70;99.90;;;;;;6118200;23;20044;-81
2023/02/01 09:54:20;;;;;;;17.35;3.20;;;6.70;99.90;;;;;;6142134;23;20108;-80
2023/02/01 09:56:52;;;;;;;15.23;3.13;;;6.70;99.90;;;;;;6142018;23;20013;-80
2023/02/01 09:59:40;;;;;;;25.85;3.78;;;6.70;99.90;;;;;;6143246;23;20022;-80
2023/02/01 10:02:13;;;;;;;16.83;3.38;;;6.60;99.90;;;;;;6142452;23;20498;-80
2023/02/01 10:04:38;;;;;;;20.40;3.00;;;6.50;99.90;;;;;;6122190;23;20017;-81
2023/02/01 10:07:24;;;;;;;18.35;3.67;;;6.60;99.90;;;;;;6144035;23;20020;-81
2023/02/01 10:10:08;;;;;;;18.55;2.95;;;6.60;99.90;;;;;;6119379;23;20017;-80
2023/02/01 10:12:52;;;;;;;18.52;3.78;;;6.60;99.90;;;;;;6118041;23;20044;-80
2023/02/01 10:15:18;;;;;;;17.98;3.28;;;6.60;99.90;;;;;;6131335;23;20021;-81
2023/02/01 10:18:17;;;;;;;21.70;3.92;;;6.50;99.90;;;;;;6117477;23;20034;-80
2023/02/01 10:21:06;;;;;;;21.23;3.83;;;6.50;99.90;;;;;;6117790;23;20022;-80
2023/02/01 10:23:50;;;;;;;20.27;3.95;;;6.50;99.90;;;;;;6120003;23;20020;-81
2023/02/01 10:26:24;;;;;;;28.75;3.83;;;6.50;99.90;;;;;;6119979;23;20060;-80
2023/02/01 10:28:58;;;;;;;15.85;3.30;;;6.50;99.90;;;;;;6146472;23;20021;-80
2023/02/01 10:31:28;;;;;;;26.13;3.50;;;6.60;99.90;;;;;;6145605;23;20022;-80
2023/02/01 10:34:00;;;;;;;19.10;3.05;;;6.50;99.90;;;;;;6147360;23;20028;-81
2023/02/01 10:36:35;;;;;;;15.20;2.75;;;6.50;99.90;;;;;;6146553;23;20104;-81
2023/02/01 10:39:03;;;;;;;18.88;4.38;;;6.60;99.90;;;;;;6123002;23;20024;-81
2023/02/01 10:41:37;;;;;;;22.70;3.38;;;6.50;99.90;;;;;;6122251;23;20013;-82
2023/02/01 10:44:11;;;;;;;20.77;3.38;;;6.50;99.90;;;;;;6147816;23;20017;-81
2023/02/01 10:46:38;;;;;;;18.17;2.67;;;7.40;99.90;;;;;;6119675;23;20069;-81
2023/02/01 10:49:09;;;;;;;20.83;3.83;;;6.50;99.90;;;;;;6121959;23;20466;-81
2023/02/01 10:51:51;;;;;;;23.23;4.10;;;6.60;99.90;;;;;;6116593;23;20083;-81
2023/02/01 10:54:20;;;;;;;20.58;3.22;;;6.60;99.90;;;;;;6117804;23;20021;-81
2023/02/01 10:56:47;;;;;;;21.23;4.22;;;6.60;99.90;;;;;;6114121;23;20017;-81
2023/02/01 10:59:25;;;;;;;19.13;2.97;;;6.70;99.90;;;;;;6117915;23;20032;-81
2023/02/01 11:02:01;;;;;;;22.13;3.75;;;6.70;99.90;;;;;;6142225;23;20010;-82
2023/02/01 11:04:33;;;;;;;17.77;3.53;;;6.80;99.90;;;;;;6146391;23;20564;-82
2023/02/01 11:07:31;;;;;;;22.48;4.10;;;6.80;99.90;;;;;;6120880;23;20016;-81
2023/02/01 11:09:57;;;;;;;21.30;4.60;;;6.80;99.90;;;;;;6056868;23;20021;-81
2023/02/01 11:12:32;;;;;;;27.08;5.03;;;6.80;99.90;;;;;;6142417;23;20017;-81
2023/02/01 11:15:20;;;;;;;20.90;4.07;;;6.80;99.90;;;;;;6144485;23;20013;-82
2023/02/01 11:17:51;;;;;;;18.92;2.80;;;6.90;99.90;;;;;;6120693;23;20009;-81
2023/02/01 11:20:31;;;;;;;24.50;3.60;;;6.90;99.90;;;;;;6145593;23;20140;-81
2023/02/01 11:22:57;;;;;;;24.45;4.85;;;6.90;99.90;;;;;;6121513;23;20025;-81
2023/02/01 11:25:24;;;;;;;18.80;3.50;;;6.90;99.90;;;;;;6118470;23;20022;-81
2023/02/01 11:27:52;;;;;;;24.92;3.80;;;7.10;99.90;;;;;;6144143;23;20045;-82
2023/02/01 11:30:24;;;;;;;20.02;3.05;;;7.00;99.90;;;;;;6120907;23;20018;-81
2023/02/01 11:32:50;;;;;;;22.63;3.13;;;7.00;99.90;;;;;;6146121;23;20056;-82
2023/02/01 11:35:20;;;;;;;24.13;3.80;;;7.00;99.90;;;;;;6118564;23;20049;-81
2023/02/01 11:37:54;;;;;;;18.77;3.35;;;7.00;99.90;;;;;;6147922;23;20024;-81
2023/02/01 11:40:37;;;;;;;18.60;3.33;;;6.90;99.90;;;;;;6148360;23;20017;-84
2023/02/01 11:43:16;;;;;;;28.50;4.15;;;6.90;99.90;;;;;;6123090;23;20075;-85
2023/02/01 11:45:54;;;;;;;26.30;5.43;;;6.90;99.90;;;;;;6122709;23;20052;-82
2023/02/01 11:48:20;;;;;;;22.67;4.18;;;6.90;99.90;;;;;;6143581;23;20017;-82
2023/02/01 11:51:03;;;;;;;26.35;4.35;;;6.80;99.90;;;;;;6120464;23;20017;-82
2023/02/01 11:53:37;;;;;;;28.42;4.18;;;6.80;99.90;;;;;;6123683;23;20014;-83
2023/02/01 11:56:37;;;;;;;20.90;3.65;;;6.80;99.90;;;;;;6120513;23;20022;-83
2023/02/01 11:59:25;;;;;;;22.95;3.83;;;6.80;99.90;;;;;;6069814;23;20365;-83
2023/02/01 12:02:18;;;;;;;22.48;4.22;;;6.80;99.90;;;;;;6146333;23;20065;-81
2023/02/01 12:05:02;;;;;;;17.73;2.97;;;7.30;99.90;;;;;;6145930;23;20108;-81
2023/02/01 12:07:46;;;;;;;21.33;3.20;;;6.90;99.90;;;;;;6144649;23;20399;-82
2023/02/01 12:10:25;;;;;;;23.75;3.70;;;7.00;99.90;;;;;;6120338;23;20130;-80
2023/02/01 12:13:11;;;;;;;26.98;4.68;;;6.90;99.90;;;;;;6145901;23;20017;-80
2023/02/01 12:15:47;;;;;;;20.17;3.50;;;6.90;99.90;;;;;;6143937;23;20060;-81
2023/02/01 12:18:33;;;;;;;22.48;4.40;;;6.80;99.90;;;;;;6146760;23;20690;-81
2023/02/01 12:21:10;;;;;;;18.30;3.65;;;6.80;99.90;;;;;;6119559;23;20021;-81
2023/02/01 12:24:00;;;;;;;27.58;4.78;;;6.80;99.90;;;;;;6146268;23;20096;-81
2023/02/01 12:26:35;;;;;;;20.08;4.03;;;6.90;99.90;;;;;;6123784;23;20014;-81
2023/02/01 12:29:12;;;;;;;23.90;4.18;;;6.90;99.90;;;;;;6149449;23;20020;-81
2023/02/01 12:32:00;;;;;;;26.90;3.95;;;7.00;99.90;;;;;;6123887;23;20029;-81
2023/02/01 12:34:53;;;;;;;28.20;6.13;;;7.10;99.90;;;;;;6123034;23;20044;-81
2023/02/01 12:37:45;;;;;;;17.88;4.30;;;7.20;99.90;;;;;;6149309;23;20014;-81
2023/02/01 12:40:22;;;;;;;23.15;5.05;;;7.30;99.90;;;;;;6148968;23;20048;-81
2023/02/01 12:43:10;;;;;;;23.63;4.30;;;7.40;99.90;;;;;;6124484;23;21019;-82
2023/02/01 12:45:43;;;;;;;27.10;4.85;;;7.40;99.90;;;;;;6127731;23;20013;-81
2023/02/01 12:48:48;;;;;;;25.35;4.00;;;7.40;99.90;;;;;;6148330;23;20021;-81
2023/02/01 12:51:20;;;;;;;23.65;3.72;;;7.60;99.90;;;;;;6072357;23;20017;-81
2023/02/01 12:54:00;;;;;;;23.52;4.03;;;7.60;99.90;;;;;;6144852;23;20346;-81
2023/02/01 12:56:37;;;;;;;30.13;4.15;;;7.60;99.90;;;;;;6119389;23;20014;-81
2023/02/01 12:59:08;;;;;;;27.45;4.32;;;7.60;99.90;;;;;;6146491;23;20229;-81
2023/02/01 13:01:39;;;;;;;21.38;3.72;;;7.60;99.90;;;;;;6146564;23;20021;-81
2023/02/01 13:04:31;;;;;;;23.38;5.07;;;7.80;99.90;;;;;;6148413;23;20072;-81
2023/02/01 13:07:10;;;;;;;24.63;4.47;;;7.70;99.90;;;;;;6147769;23;20041;-81
2023/02/01 13:09:54;;;;;;;21.27;3.35;;;7.70;99.90;;;;;;6122899;23;20060;-81
2023/02/01 13:12:28;;;;;;;23.40;4.57;;;7.70;99.90;;;;;;6124023;23;20013;-81
2023/02/01 13:14:59;;;;;;;21.17;4.90;;;7.80;99.90;;;;;;6141810;23;20013;-82
2023/02/01 13:17:28;;;;;;;27.17;4.25;;;7.80;99.90;;;;;;6142645;23;20056;-81
2023/02/01 13:20:18;;;;;;;25.25;4.63;;;7.70;99.90;;;;;;6119976;23;20088;-81
2023/02/01 13:22:53;;;;;;;26.10;4.30;;;7.80;99.90;;;;;;6118864;23;20354;-81
2023/02/01 13:25:31;;;;;;;27.40;4.65;;;7.70;99.90;;;;;;6141362;23;20648;-81
2023/02/01 13:28:04;;;;;;;21.40;3.88;;;7.80;99.90;;;;;;6144445;23;20018;-80
2023/02/01 13:30:41;;;;;;;21.63;3.92;;;7.70;99.90;;;;;;6145335;23;20121;-81
2023/02/01 13:33:26;;;;;;;21.50;4.07;;;7.70;99.90;;;;;;6144627;23;20171;-80
2023/02/01 13:36:08;;;;;;;26.37;4.67;;;7.70;99.90;;;;;;6122792;23;20021;-81